Time;durP1;ratioP1;P1;durP2;ratioP2;P2;SDS_P1;SDS_P2;PMS_P1;PMS_P2;Temp;Humidity;BMP_temperature;BMP_pressure;BME280_temperature;BME280_humidity;BME280_pressure;Samples;Min_cycle;Max_cycle;Signal;HPM_P1;HPM_P2
2021/07/19 00:02:13;;;;;;;5.47;2.60;;;18.10;99.90;;;;;;5071686;28;20090;-81
2021/07/19 00:04:41;;;;;;;4.93;2.78;;;18.00;99.90;;;;;;5085498;28;20422;-83
2021/07/19 00:07:09;;;;;;;5.85;2.95;;;18.10;99.90;;;;;;5097434;28;20016;-83
2021/07/19 00:09:36;;;;;;;4.80;2.80;;;18.00;99.90;;;;;;5079270;28;20052;-82
2021/07/19 00:12:06;;;;;;;4.63;2.92;;;18.00;99.90;;;;;;5082730;28;20027;-83
2021/07/19 00:14:33;;;;;;;6.32;3.30;;;17.90;99.90;;;;;;5054850;28;20028;-82
2021/07/19 00:17:02;;;;;;;5.07;2.90;;;17.90;99.90;;;;;;5085558;28;20078;-84
2021/07/19 00:19:28;;;;;;;4.38;2.88;;;17.90;99.90;;;;;;5052729;28;20044;-82
2021/07/19 00:21:55;;;;;;;5.60;3.28;;;17.90;99.90;;;;;;5100766;28;20040;-82
2021/07/19 00:24:21;;;;;;;5.10;2.97;;;17.80;99.90;;;;;;5069344;28;20029;-83
2021/07/19 00:26:49;;;;;;;4.93;3.08;;;17.80;99.90;;;;;;5078746;28;20455;-81
2021/07/19 00:29:18;;;;;;;6.93;2.80;;;17.70;99.90;;;;;;5062926;28;20024;-83
2021/07/19 00:31:44;;;;;;;3.88;2.80;;;17.70;99.90;;;;;;5076106;28;20032;-84
2021/07/19 00:34:10;;;;;;;6.10;3.28;;;17.70;99.90;;;;;;5089012;28;20033;-82
2021/07/19 00:36:35;;;;;;;5.72;3.35;;;17.70;99.90;;;;;;5070016;28;20454;-83
2021/07/19 00:39:08;;;;;;;6.68;3.50;;;17.70;99.90;;;;;;5073486;28;20418;-83
2021/07/19 00:41:34;;;;;;;5.37;2.90;;;17.60;99.90;;;;;;5073253;28;20094;-82
2021/07/19 00:44:03;;;;;;;5.88;2.80;;;17.60;99.90;;;;;;5072988;28;20111;-82
2021/07/19 00:46:29;;;;;;;5.78;3.10;;;17.60;99.90;;;;;;5102168;28;20036;-82
2021/07/19 00:48:55;;;;;;;5.32;3.03;;;17.50;99.90;;;;;;5081073;28;20028;-81
2021/07/19 00:51:22;;;;;;;4.72;2.72;;;17.50;99.90;;;;;;5078861;28;20024;-82
2021/07/19 00:53:48;;;;;;;6.38;3.33;;;17.50;99.90;;;;;;5092019;28;20475;-80
2021/07/19 00:56:15;;;;;;;5.93;3.60;;;17.40;99.90;;;;;;5114357;28;20028;-82
2021/07/19 00:58:43;;;;;;;6.32;3.05;;;17.40;99.90;;;;;;5071873;28;20025;-81
2021/07/19 01:01:11;;;;;;;6.75;3.40;;;17.40;99.90;;;;;;5086047;28;20113;-81
2021/07/19 01:03:39;;;;;;;5.15;3.00;;;17.30;99.90;;;;;;5098727;28;20036;-81
2021/07/19 01:06:05;;;;;;;5.15;3.08;;;17.30;99.90;;;;;;5093970;28;20028;-81
2021/07/19 01:08:32;;;;;;;4.68;3.13;;;17.30;99.90;;;;;;5088864;28;20042;-81
2021/07/19 01:10:58;;;;;;;5.70;3.10;;;17.30;99.90;;;;;;5088677;28;20032;-81
2021/07/19 01:13:24;;;;;;;4.43;2.60;;;17.30;99.90;;;;;;5088790;28;20476;-80
2021/07/19 01:15:52;;;;;;;6.28;3.60;;;17.20;99.90;;;;;;5091427;28;20437;-81
2021/07/19 01:18:22;;;;;;;5.72;3.03;;;17.20;99.90;;;;;;5078602;28;20028;-80
2021/07/19 01:21:03;;;;;;;5.65;3.20;;;17.10;99.90;;;;;;5081254;28;20032;-81
2021/07/19 01:24:27;;;;;;;7.20;3.55;;;17.10;99.90;;;;;;5079596;28;20039;-80
2021/07/19 01:27:33;;;;;;;6.15;3.55;;;17.00;99.90;;;;;;5014220;28;20053;-82
2021/07/19 01:30:05;;;;;;;5.57;3.33;;;17.00;99.90;;;;;;5071986;28;20031;-83
2021/07/19 01:32:34;;;;;;;4.47;3.33;;;16.90;99.90;;;;;;5073000;28;20021;-81
2021/07/19 01:35:02;;;;;;;5.47;3.35;;;16.90;99.90;;;;;;5065696;28;20400;-81
2021/07/19 01:37:29;;;;;;;6.97;3.95;;;16.90;99.90;;;;;;5092273;28;20537;-80
2021/07/19 01:39:55;;;;;;;5.57;3.42;;;16.80;99.90;;;;;;5082483;28;20028;-81
2021/07/19 01:42:21;;;;;;;4.82;2.83;;;16.80;99.90;;;;;;5091005;28;20132;-81
2021/07/19 01:44:50;;;;;;;4.03;2.92;;;16.80;99.90;;;;;;5091053;28;20027;-81
2021/07/19 01:47:16;;;;;;;5.05;3.50;;;16.80;99.90;;;;;;5081483;28;20461;-80
2021/07/19 01:49:43;;;;;;;5.03;3.33;;;16.70;99.90;;;;;;5096281;28;20054;-81
2021/07/19 01:52:11;;;;;;;5.00;3.20;;;16.80;99.90;;;;;;5067258;28;20116;-81
2021/07/19 01:54:38;;;;;;;5.90;3.03;;;16.70;99.90;;;;;;5080736;28;20070;-82
2021/07/19 01:57:04;;;;;;;6.85;3.38;;;16.70;99.90;;;;;;5082621;28;20033;-81
2021/07/19 01:59:31;;;;;;;4.88;3.15;;;16.70;99.90;;;;;;5092814;28;20040;-81
2021/07/19 02:01:57;;;;;;;5.30;3.60;;;16.60;99.90;;;;;;5081826;28;20044;-81
2021/07/19 02:04:25;;;;;;;4.88;3.35;;;16.60;99.90;;;;;;5079126;28;20029;-81
2021/07/19 02:06:52;;;;;;;5.30;3.35;;;16.50;99.90;;;;;;5082178;28;20028;-81
2021/07/19 02:09:21;;;;;;;4.72;3.20;;;16.60;99.90;;;;;;5081917;28;20419;-82
2021/07/19 02:11:48;;;;;;;4.88;3.28;;;16.50;99.90;;;;;;5060619;28;20427;-81
2021/07/19 02:14:15;;;;;;;5.47;3.08;;;16.50;99.90;;;;;;5083048;28;20020;-81
2021/07/19 02:16:50;;;;;;;4.90;2.97;;;16.50;99.90;;;;;;5107701;27;20522;-81
2021/07/19 02:19:16;;;;;;;5.63;3.10;;;16.50;99.90;;;;;;5090037;28;20043;-82
2021/07/19 02:21:42;;;;;;;5.82;2.83;;;16.50;99.90;;;;;;5064517;28;20667;-82
2021/07/19 02:24:12;;;;;;;4.72;3.03;;;16.40;99.90;;;;;;5140680;27;20020;-82
2021/07/19 02:26:38;;;;;;;4.18;2.95;;;16.40;99.90;;;;;;5058761;28;20044;-82
2021/07/19 02:29:04;;;;;;;4.72;3.38;;;16.40;99.90;;;;;;5086640;28;20024;-81
2021/07/19 02:31:31;;;;;;;5.07;3.17;;;16.40;99.90;;;;;;5081333;28;20024;-82
2021/07/19 02:33:57;;;;;;;4.38;3.10;;;16.40;99.90;;;;;;5086763;28;20035;-81
2021/07/19 02:36:24;;;;;;;5.25;3.38;;;16.30;99.90;;;;;;5074136;28;20064;-80
2021/07/19 02:38:52;;;;;;;5.30;3.05;;;16.20;99.90;;;;;;5054136;28;20124;-81
2021/07/19 02:41:22;;;;;;;3.92;2.70;;;16.20;99.90;;;;;;5088819;28;20054;-82
2021/07/19 02:43:51;;;;;;;4.55;2.95;;;16.20;99.90;;;;;;5081584;28;20028;-82
2021/07/19 02:46:23;;;;;;;5.07;3.50;;;16.10;99.90;;;;;;5064387;28;20037;-82
2021/07/19 02:48:58;;;;;;;4.70;3.00;;;16.20;99.90;;;;;;5114927;27;20100;-81
2021/07/19 02:51:26;;;;;;;4.57;2.53;;;16.10;99.90;;;;;;5063383;28;20024;-82
2021/07/19 02:53:53;;;;;;;5.78;3.10;;;16.10;99.90;;;;;;5070766;28;20033;-81
2021/07/19 02:56:23;;;;;;;5.75;3.30;;;16.10;99.90;;;;;;5072651;28;20016;-82
2021/07/19 02:58:50;;;;;;;5.75;3.58;;;16.00;99.90;;;;;;5097877;28;20020;-82
2021/07/19 03:01:20;;;;;;;4.78;3.25;;;16.00;99.90;;;;;;5103220;28;20051;-80
2021/07/19 03:03:48;;;;;;;5.85;3.40;;;16.00;99.90;;;;;;5077879;28;20128;-81
2021/07/19 03:06:18;;;;;;;5.45;3.03;;;16.00;99.90;;;;;;5081691;28;20082;-82
2021/07/19 03:08:45;;;;;;;5.47;3.85;;;16.00;99.90;;;;;;5080711;28;20512;-81
2021/07/19 03:11:38;;;;;;;6.95;4.07;;;16.00;99.90;;;;;;5083127;28;20142;-81
2021/07/19 03:14:20;;;;;;;5.78;3.45;;;15.90;99.90;;;;;;5069934;28;20056;-80
2021/07/19 03:16:46;;;;;;;6.03;3.00;;;15.90;99.90;;;;;;5097503;28;20028;-81
2021/07/19 03:19:16;;;;;;;6.55;3.65;;;15.90;99.90;;;;;;5065277;28;20054;-80
2021/07/19 03:21:43;;;;;;;6.05;3.42;;;15.90;99.90;;;;;;5109262;28;20060;-79
2021/07/19 03:24:12;;;;;;;4.95;3.33;;;15.90;99.90;;;;;;5083905;28;20056;-81
2021/07/19 03:26:42;;;;;;;7.55;3.75;;;15.90;99.90;;;;;;5086475;28;20414;-82
2021/07/19 03:29:10;;;;;;;8.38;3.33;;;15.90;99.90;;;;;;5091681;28;20105;-82
2021/07/19 03:31:39;;;;;;;5.80;3.25;;;15.80;99.90;;;;;;5063375;28;20098;-81
2021/07/19 03:34:06;;;;;;;7.10;3.60;;;15.80;99.90;;;;;;5067244;28;20033;-82
2021/07/19 03:36:33;;;;;;;5.97;3.45;;;15.80;99.90;;;;;;5076069;28;20385;-81
2021/07/19 03:39:01;;;;;;;5.07;3.17;;;15.80;99.90;;;;;;5065921;28;20059;-81
2021/07/19 03:41:33;;;;;;;5.40;2.90;;;15.80;99.90;;;;;;5126721;27;20032;-82
2021/07/19 03:44:00;;;;;;;5.72;3.63;;;15.80;99.90;;;;;;5082371;28;20059;-82
2021/07/19 03:46:28;;;;;;;6.82;4.15;;;15.70;99.90;;;;;;5076976;28;20112;-83
2021/07/19 03:48:54;;;;;;;4.90;3.25;;;15.70;99.90;;;;;;5055788;28;20025;-80
2021/07/19 03:51:22;;;;;;;5.10;2.97;;;15.70;99.90;;;;;;5088931;28;20094;-80
2021/07/19 03:53:51;;;;;;;7.93;3.78;;;15.70;99.90;;;;;;5081210;28;20023;-81
2021/07/19 03:56:18;;;;;;;5.88;3.53;;;15.70;99.90;;;;;;5096825;28;20067;-81
2021/07/19 03:58:45;;;;;;;4.15;3.03;;;15.70;99.90;;;;;;5072034;28;20029;-81
2021/07/19 04:01:12;;;;;;;5.25;3.30;;;15.60;99.90;;;;;;5087467;28;20052;-81
2021/07/19 04:03:46;;;;;;;6.78;3.17;;;15.60;99.90;;;;;;5077699;28;20048;-81
2021/07/19 04:06:18;;;;;;;5.63;3.50;;;15.70;99.90;;;;;;5084111;28;20519;-81
2021/07/19 04:08:58;;;;;;;6.45;2.92;;;15.70;99.90;;;;;;5096950;28;20066;-80
2021/07/19 04:11:26;;;;;;;5.20;3.28;;;15.70;99.90;;;;;;5045960;28;20029;-80
2021/07/19 04:13:55;;;;;;;5.50;3.08;;;15.70;99.90;;;;;;5086843;28;20044;-80
2021/07/19 04:16:27;;;;;;;5.47;3.25;;;15.80;99.90;;;;;;5073317;28;20043;-80
2021/07/19 04:18:54;;;;;;;5.50;3.40;;;15.80;99.90;;;;;;5068942;28;20476;-81
2021/07/19 04:21:21;;;;;;;6.10;3.40;;;15.80;99.90;;;;;;5122560;27;20035;-81
2021/07/19 04:23:49;;;;;;;7.22;4.03;;;15.80;99.90;;;;;;5078618;28;20024;-81
2021/07/19 04:26:17;;;;;;;5.72;3.35;;;15.80;99.90;;;;;;5079750;28;20025;-81
2021/07/19 04:28:48;;;;;;;5.20;3.60;;;15.80;99.90;;;;;;5060882;28;20464;-82
2021/07/19 04:31:16;;;;;;;6.57;3.58;;;15.80;99.90;;;;;;5093497;28;20023;-82
2021/07/19 04:33:49;;;;;;;5.63;3.78;;;15.80;99.90;;;;;;5092331;28;20070;-81
2021/07/19 04:36:17;;;;;;;6.30;3.80;;;15.80;99.90;;;;;;5082365;28;20111;-81
2021/07/19 04:38:46;;;;;;;5.70;3.72;;;15.80;99.90;;;;;;5084612;28;20021;-81
2021/07/19 04:41:19;;;;;;;6.53;3.60;;;15.80;99.90;;;;;;5074682;28;20390;-81
2021/07/19 04:43:48;;;;;;;6.65;3.83;;;15.80;99.90;;;;;;5055944;28;20102;-82
2021/07/19 04:46:15;;;;;;;8.95;4.35;;;15.90;99.90;;;;;;5094935;28;20024;-81
2021/07/19 04:48:41;;;;;;;6.85;4.00;;;15.90;99.90;;;;;;5089536;28;20050;-80
2021/07/19 04:51:19;;;;;;;;;;;;;;;;;;;;;
2021/07/19 04:53:50;;;;;;;5.15;3.50;;;16.10;99.90;;;;;;5079121;28;20110;-81
2021/07/19 04:56:18;;;;;;;5.85;3.40;;;16.20;99.90;;;;;;5097311;28;20024;-81
2021/07/19 04:58:51;;;;;;;6.32;3.60;;;16.20;99.90;;;;;;5071420;28;20116;-81
2021/07/19 05:01:18;;;;;;;4.75;3.30;;;16.30;99.90;;;;;;5089623;28;20032;-81
2021/07/19 05:03:49;;;;;;;5.28;3.75;;;16.40;99.90;;;;;;5072220;28;20086;-82
2021/07/19 05:06:19;;;;;;;5.88;3.45;;;16.40;99.90;;;;;;5070707;28;20091;-82
2021/07/19 05:08:48;;;;;;;5.88;3.47;;;16.50;99.90;;;;;;5071983;28;20060;-81
2021/07/19 05:11:15;;;;;;;5.90;3.30;;;16.50;99.90;;;;;;5086813;28;20035;-81
2021/07/19 05:13:42;;;;;;;5.78;3.42;;;16.50;99.90;;;;;;5047711;28;20043;-81
2021/07/19 05:16:09;;;;;;;5.25;3.08;;;16.50;99.90;;;;;;5089680;28;20090;-82
2021/07/19 05:18:40;;;;;;;7.32;3.53;;;16.60;99.90;;;;;;5088168;28;20450;-83
2021/07/19 05:21:07;;;;;;;7.20;3.92;;;16.70;99.90;;;;;;5076767;28;20078;-83
2021/07/19 05:26:06;;;;;;;6.18;3.30;;;16.80;99.90;;;;;;5019184;22;20052;-79
2021/07/19 05:34:10;;;;;;;5.28;2.92;;;17.30;99.90;;;;;;5126561;28;20047;-82
2021/07/19 05:36:36;;;;;;;3.95;2.83;;;17.40;99.90;;;;;;5107711;28;20031;-81
2021/07/19 05:39:06;;;;;;;5.82;3.83;;;17.50;99.90;;;;;;5103186;28;20493;-82
2021/07/19 05:41:31;;;;;;;5.57;2.90;;;17.60;99.90;;;;;;5106717;28;20032;-82
2021/07/19 05:43:57;;;;;;;4.57;2.95;;;17.60;99.90;;;;;;5131041;27;20080;-84
2021/07/19 05:46:37;;;;;;;5.82;3.20;;;17.70;99.90;;;;;;5107575;27;20039;-81
2021/07/19 05:49:04;;;;;;;5.40;3.40;;;17.70;99.90;;;;;;5129674;27;20125;-82
2021/07/19 05:51:30;;;;;;;5.20;3.35;;;17.80;99.90;;;;;;5084424;27;20078;-82
2021/07/19 05:53:56;;;;;;;6.80;3.40;;;17.90;99.90;;;;;;5102834;27;20034;-81
2021/07/19 05:56:22;;;;;;;5.65;3.42;;;18.00;99.90;;;;;;5102472;27;20023;-82
2021/07/19 05:58:47;;;;;;;6.38;3.47;;;18.10;99.90;;;;;;5119841;27;20034;-82
2021/07/19 06:01:18;;;;;;;4.68;3.35;;;18.20;99.90;;;;;;5138363;27;20070;-83
2021/07/19 06:03:47;;;;;;;5.25;3.45;;;18.30;99.90;;;;;;5137938;27;20023;-81
2021/07/19 06:06:13;;;;;;;5.57;3.78;;;18.50;99.90;;;;;;5120225;27;20054;-82
2021/07/19 06:08:38;;;;;;;5.43;3.47;;;18.50;99.90;;;;;;5108733;28;20019;-82
2021/07/19 06:11:13;;;;;;;5.47;3.67;;;18.70;99.90;;;;;;5132568;27;20027;-82
2021/07/19 06:13:39;;;;;;;7.00;3.72;;;18.80;99.90;;;;;;5100304;28;20028;-83
2021/07/19 06:16:06;;;;;;;4.82;3.50;;;18.80;99.90;;;;;;5067087;28;20035;-82
2021/07/19 06:18:33;;;;;;;7.30;4.18;;;18.90;99.90;;;;;;5110956;27;20147;-81
2021/07/19 06:21:00;;;;;;;5.80;3.70;;;19.00;99.90;;;;;;5107385;28;20039;-81
2021/07/19 06:23:27;;;;;;;7.03;3.92;;;19.00;99.90;;;;;;5100697;27;20503;-82
2021/07/19 06:25:53;;;;;;;6.07;4.13;;;19.10;99.90;;;;;;5116044;28;20058;-82
2021/07/19 06:28:22;;;;;;;5.65;3.70;;;19.20;99.90;;;;;;5099344;28;20024;-81
2021/07/19 06:30:51;;;;;;;5.60;4.05;;;19.20;99.90;;;;;;5118337;28;20016;-81
2021/07/19 06:33:19;;;;;;;5.40;3.88;;;19.20;99.90;;;;;;5135665;27;20054;-82
2021/07/19 06:35:48;;;;;;;5.97;3.90;;;19.20;99.90;;;;;;5108925;28;20043;-82
2021/07/19 06:38:14;;;;;;;6.20;4.55;;;19.20;99.90;;;;;;5090233;27;20023;-82
2021/07/19 06:40:42;;;;;;;5.47;4.07;;;19.20;99.90;;;;;;5118466;28;20074;-82
2021/07/19 06:43:08;;;;;;;6.13;4.20;;;19.10;99.90;;;;;;5100829;28;20031;-82
2021/07/19 06:45:35;;;;;;;6.15;3.95;;;19.20;99.90;;;;;;5117141;27;20023;-83
2021/07/19 06:48:00;;;;;;;6.30;4.43;;;19.30;99.90;;;;;;5100465;28;20019;-82
2021/07/19 06:50:26;;;;;;;5.72;4.15;;;19.40;99.90;;;;;;5099305;28;20020;-80
2021/07/19 06:52:53;;;;;;;6.55;4.40;;;19.60;99.90;;;;;;5112064;27;20115;-83
2021/07/19 06:55:19;;;;;;;7.68;4.32;;;19.70;99.90;;;;;;5119429;27;20027;-83
2021/07/19 06:57:45;;;;;;;7.82;5.00;;;19.80;99.90;;;;;;5120767;27;20054;-82
2021/07/19 07:00:11;;;;;;;8.70;4.60;;;19.80;99.90;;;;;;5103944;28;20058;-83
2021/07/19 07:02:38;;;;;;;9.48;4.55;;;19.80;99.90;;;;;;5127779;27;20062;-84
2021/07/19 07:05:06;;;;;;;6.60;4.07;;;19.90;99.90;;;;;;5137196;27;20030;-84
2021/07/19 07:07:33;;;;;;;9.88;4.40;;;20.00;99.90;;;;;;5118858;27;20058;-82
2021/07/19 07:10:17;;;;;;;7.93;4.13;;;20.00;99.90;;;;;;5123203;27;20026;-84
2021/07/19 07:12:43;;;;;;;7.57;4.32;;;20.00;99.90;;;;;;5115728;27;20026;-82
2021/07/19 07:15:13;;;;;;;8.18;4.38;;;20.00;99.90;;;;;;5135612;27;20410;-82
2021/07/19 07:17:40;;;;;;;7.13;4.00;;;20.00;99.90;;;;;;5129072;27;20477;-82
2021/07/19 07:20:08;;;;;;;4.78;3.45;;;20.10;99.90;;;;;;5122229;27;20096;-81
2021/07/19 07:22:34;;;;;;;6.85;3.65;;;20.10;99.90;;;;;;5109210;27;20019;-84
2021/07/19 07:25:01;;;;;;;7.65;3.92;;;20.30;99.90;;;;;;5126200;27;20524;-82
2021/07/19 07:27:27;;;;;;;7.03;3.53;;;20.40;99.90;;;;;;5107893;27;20115;-83
2021/07/19 07:29:53;;;;;;;5.93;3.50;;;20.50;99.90;;;;;;5107414;27;20115;-82
2021/07/19 07:32:21;;;;;;;6.65;4.20;;;20.50;99.90;;;;;;5119800;27;20043;-83
2021/07/19 07:34:49;;;;;;;6.55;4.30;;;20.50;99.90;;;;;;5114572;27;20132;-82
2021/07/19 07:37:15;;;;;;;5.90;4.18;;;20.50;99.90;;;;;;5126016;27;20016;-83
2021/07/19 07:39:47;;;;;;;5.63;3.70;;;20.60;99.90;;;;;;5113964;27;20073;-83
2021/07/19 07:42:25;;;;;;;;;;;;;;;;;;;;;
2021/07/19 07:44:55;;;;;;;4.95;3.60;;;20.70;99.90;;;;;;5121532;27;20034;-82
2021/07/19 07:47:21;;;;;;;8.23;4.32;;;20.70;99.90;;;;;;5115154;27;20033;-83
2021/07/19 07:49:52;;;;;;;7.40;4.53;;;20.70;99.90;;;;;;5113658;28;20038;-83
2021/07/19 07:52:22;;;;;;;7.20;4.45;;;20.70;99.90;;;;;;5093932;28;20070;-82
2021/07/19 07:54:56;;;;;;;6.80;4.40;;;20.70;99.90;;;;;;5068224;28;20020;-80
2021/07/19 07:57:25;;;;;;;5.88;4.32;;;20.80;99.90;;;;;;5092275;28;20031;-81
2021/07/19 07:59:53;;;;;;;8.10;4.60;;;20.90;99.90;;;;;;5099071;27;20020;-82
2021/07/19 08:02:34;;;;;;;8.48;5.05;;;21.10;99.90;;;;;;5105416;27;20027;-83
2021/07/19 08:05:00;;;;;;;5.53;4.15;;;21.20;99.90;;;;;;5112490;28;20102;-81
2021/07/19 08:07:42;;;;;;;6.78;4.82;;;21.30;99.90;;;;;;5096175;28;20528;-82
2021/07/19 08:10:09;;;;;;;8.80;5.22;;;21.60;99.90;;;;;;5117090;27;20016;-83
2021/07/19 08:12:38;;;;;;;5.78;4.22;;;21.70;99.90;;;;;;5101504;27;20053;-81
2021/07/19 08:15:06;;;;;;;6.57;4.70;;;21.90;99.90;;;;;;5100709;28;20040;-83
2021/07/19 08:17:38;;;;;;;7.82;4.55;;;22.00;99.90;;;;;;5112665;28;20462;-81
2021/07/19 08:20:05;;;;;;;6.50;4.80;;;22.00;99.90;;;;;;5096325;28;20027;-82
2021/07/19 08:22:31;;;;;;;6.68;4.80;;;22.10;99.90;;;;;;5114166;28;20024;-82
2021/07/19 08:25:01;;;;;;;6.35;4.43;;;22.10;99.90;;;;;;5102923;28;20024;-83
2021/07/19 08:27:30;;;;;;;6.68;4.90;;;22.10;99.90;;;;;;5129786;28;20019;-81
2021/07/19 08:29:56;;;;;;;6.25;4.10;;;22.10;99.90;;;;;;5102624;28;20446;-82
2021/07/19 08:32:24;;;;;;;5.80;4.53;;;22.10;99.90;;;;;;5119242;27;20070;-84
2021/07/19 08:34:51;;;;;;;5.68;4.25;;;22.10;99.90;;;;;;5096835;28;20031;-83
2021/07/19 08:37:18;;;;;;;8.07;5.15;;;22.10;99.90;;;;;;5080796;28;20056;-83
2021/07/19 08:39:47;;;;;;;7.93;5.28;;;22.10;99.90;;;;;;5103178;28;20031;-82
2021/07/19 08:42:14;;;;;;;6.97;5.45;;;22.00;99.90;;;;;;5092364;28;20134;-82
2021/07/19 08:44:45;;;;;;;6.72;5.07;;;22.00;99.90;;;;;;5085970;28;20598;-83
2021/07/19 08:47:26;;;;;;;6.45;5.20;;;22.00;99.90;;;;;;5099072;28;20027;-83
2021/07/19 08:50:19;;;;;;;8.13;4.35;;;22.00;99.90;;;;;;5077921;28;20302;-82
2021/07/19 08:52:54;;;;;;;8.37;4.27;;;21.90;99.90;;;;;;5110956;28;20487;-83
2021/07/19 08:55:24;;;;;;;6.75;4.60;;;21.90;99.90;;;;;;5113815;28;20020;-83
2021/07/19 08:57:52;;;;;;;6.68;4.68;;;21.80;99.90;;;;;;5079359;28;20034;-83
2021/07/19 09:00:23;;;;;;;6.70;4.53;;;21.80;99.90;;;;;;5113887;28;20463;-81
2021/07/19 09:02:49;;;;;;;7.20;4.63;;;21.70;99.90;;;;;;5083404;28;20110;-84
2021/07/19 09:05:16;;;;;;;7.30;4.50;;;21.60;99.90;;;;;;5091068;28;20034;-83
2021/07/19 09:07:43;;;;;;;5.97;4.50;;;21.60;99.90;;;;;;5077872;28;20122;-83
2021/07/19 09:10:11;;;;;;;7.32;4.82;;;21.70;99.90;;;;;;5107113;28;20074;-82
2021/07/19 09:12:43;;;;;;;6.78;5.05;;;21.80;99.90;;;;;;5104016;28;20100;-82
2021/07/19 09:15:13;;;;;;;7.50;4.85;;;21.90;99.90;;;;;;5097423;28;20396;-82
2021/07/19 09:17:40;;;;;;;6.47;4.75;;;22.00;99.90;;;;;;5091626;28;20085;-82
2021/07/19 09:20:09;;;;;;;7.72;5.25;;;22.00;99.90;;;;;;5110440;28;20035;-82
2021/07/19 09:22:38;;;;;;;6.60;4.70;;;22.00;99.90;;;;;;5122321;28;20071;-82
2021/07/19 09:25:17;;;;;;;6.55;4.45;;;21.80;99.90;;;;;;5084204;28;20099;-82
2021/07/19 09:28:12;;;;;;;6.25;4.40;;;21.80;99.90;;;;;;5093599;27;20024;-81
2021/07/19 09:30:44;;;;;;;6.43;4.75;;;21.90;99.90;;;;;;5097479;28;20032;-82
2021/07/19 09:33:22;;;;;;;6.82;5.25;;;22.10;99.90;;;;;;5096075;27;20115;-83
2021/07/19 09:36:08;;;;;;;6.70;5.22;;;22.30;99.90;;;;;;5110057;27;20030;-82
2021/07/19 09:38:37;;;;;;;7.13;4.95;;;22.60;99.90;;;;;;5089915;28;20522;-82
2021/07/19 09:41:02;;;;;;;7.15;5.47;;;23.20;99.90;;;;;;5078997;28;20040;-82
2021/07/19 09:43:34;;;;;;;7.60;5.60;;;23.60;99.90;;;;;;5096824;28;20046;-81
2021/07/19 09:46:05;;;;;;;6.97;4.72;;;23.80;99.90;;;;;;5104079;28;20031;-83
2021/07/19 09:48:33;;;;;;;7.82;5.43;;;23.80;99.90;;;;;;5101010;27;20020;-83
2021/07/19 09:50:59;;;;;;;6.68;4.93;;;23.90;99.90;;;;;;5077474;28;20077;-82
2021/07/19 09:53:43;;;;;;;7.68;5.38;;;23.90;99.90;;;;;;5092291;27;20034;-84
2021/07/19 09:56:28;;;;;;;6.85;5.05;;;23.80;99.90;;;;;;5093745;27;20503;-83
2021/07/19 09:59:13;;;;;;;6.72;4.97;;;23.60;99.90;;;;;;5122415;27;20102;-82
2021/07/19 10:01:43;;;;;;;7.53;5.20;;;23.70;99.90;;;;;;5085372;27;20087;-83
2021/07/19 10:04:21;;;;;;;;;;;24.30;99.90;;;;;;5107806;27;20031;-84
2021/07/19 10:06:55;;;;;;;7.95;5.18;;;24.50;99.90;;;;;;5092963;27;20928;-82
2021/07/19 10:09:27;;;;;;;6.20;5.22;;;24.60;99.90;;;;;;5094796;27;20034;-83
2021/07/19 10:11:55;;;;;;;6.20;5.13;;;24.70;99.90;;;;;;5096836;27;20032;-83
2021/07/19 10:14:26;;;;;;;7.63;5.28;;;24.70;99.90;;;;;;5109384;27;20257;-82
2021/07/19 10:16:54;;;;;;;6.65;5.30;;;24.50;99.90;;;;;;5114724;27;20031;-82
2021/07/19 10:19:22;;;;;;;7.60;5.78;;;24.40;99.90;;;;;;5107821;27;20442;-82
2021/07/19 10:21:51;;;;;;;6.72;5.10;;;24.20;99.90;;;;;;5100519;27;20032;-83
2021/07/19 10:24:19;;;;;;;7.40;5.47;;;24.20;99.90;;;;;;5119933;27;20012;-83
2021/07/19 10:26:49;;;;;;;6.70;5.15;;;24.90;99.90;;;;;;5096344;27;20149;-84
2021/07/19 10:29:19;;;;;;;7.53;5.05;;;25.70;99.90;;;;;;5079094;28;20036;-83
2021/07/19 10:31:58;;;;;;;7.30;5.57;;;26.40;98.90;;;;;;5088993;28;20016;-83
2021/07/19 10:34:44;;;;;;;6.80;4.90;;;27.30;98.10;;;;;;5125884;27;20509;-82
2021/07/19 10:37:42;;;;;;;8.13;5.10;;;28.10;97.60;;;;;;5101752;27;20031;-83
2021/07/19 10:40:19;;;;;;;6.68;4.85;;;29.00;96.70;;;;;;5126188;27;20192;-84
2021/07/19 10:42:45;;;;;;;8.82;5.40;;;29.70;95.70;;;;;;5117268;27;20064;-83
2021/07/19 10:45:16;;;;;;;7.47;5.68;;;29.20;94.80;;;;;;5116190;28;20020;-83
2021/07/19 10:47:56;;;;;;;6.13;5.07;;;28.30;94.70;;;;;;5135291;27;20424;-83
2021/07/19 10:50:27;;;;;;;6.78;5.30;;;27.50;95.50;;;;;;5116460;28;20076;-82
2021/07/19 10:52:58;;;;;;;7.47;5.40;;;26.70;95.60;;;;;;5131219;27;20015;-81
2021/07/19 10:55:34;;;;;;;5.95;4.45;;;26.00;95.90;;;;;;5123101;27;20024;-81
2021/07/19 10:58:19;;;;;;;6.50;5.40;;;25.40;96.60;;;;;;5109595;27;20072;-84
2021/07/19 11:00:47;;;;;;;8.82;5.07;;;25.10;97.10;;;;;;5115334;27;20096;-80
2021/07/19 11:03:16;;;;;;;6.25;4.90;;;25.30;97.10;;;;;;5122353;27;20019;-85
2021/07/19 11:06:00;;;;;;;7.78;5.72;;;25.80;96.90;;;;;;5134752;27;20366;-83
2021/07/19 11:08:33;;;;;;;7.47;5.28;;;26.10;95.60;;;;;;5128341;27;20033;-82
2021/07/19 11:11:42;;;;;;;7.03;5.60;;;26.10;96.00;;;;;;5113024;27;20547;-84
2021/07/19 11:14:22;;;;;;;8.95;5.72;;;26.70;95.50;;;;;;5119708;27;20025;-82
2021/07/19 11:16:53;;;;;;;8.55;5.43;;;27.10;95.30;;;;;;5102853;27;20034;-81
2021/07/19 11:19:41;;;;;;;8.15;5.63;;;27.40;94.80;;;;;;5116104;27;20062;-83
2021/07/19 11:22:14;;;;;;;9.55;5.78;;;27.50;94.70;;;;;;5124570;27;20051;-83
2021/07/19 11:24:47;;;;;;;;;;;27.40;94.80;;;;;;5128008;27;20007;-83
2021/07/19 11:27:30;;;;;;;;;;;27.30;94.90;;;;;;5126223;27;19913;-82
2021/07/19 11:30:17;;;;;;;6.82;5.70;;;27.70;94.70;;;;;;5107364;27;20101;-82
2021/07/19 11:32:43;;;;;;;7.75;5.65;;;28.00;94.10;;;;;;5120967;27;20040;-82
2021/07/19 11:35:15;;;;;;;8.82;5.90;;;27.90;93.90;;;;;;5100013;28;20035;-83
2021/07/19 11:37:47;;;;;;;7.35;5.75;;;28.30;93.70;;;;;;5097534;28;20582;-83
2021/07/19 11:40:28;;;;;;;9.30;6.63;;;28.80;93.10;;;;;;5123483;27;20069;-81
2021/07/19 11:42:55;;;;;;;8.80;6.47;;;29.10;92.30;;;;;;5115888;28;20027;-83
2021/07/19 11:45:21;;;;;;;9.23;6.63;;;29.60;91.20;;;;;;5095419;28;20066;-83
2021/07/19 11:47:52;;;;;;;8.43;6.82;;;29.60;90.40;;;;;;5097170;28;20016;-83
2021/07/19 11:50:27;;;;;;;7.95;6.53;;;29.10;90.40;;;;;;5093429;28;20042;-83
2021/07/19 11:52:54;;;;;;;7.57;6.22;;;28.90;90.60;;;;;;5107523;28;20459;-82
2021/07/19 11:55:24;;;;;;;8.50;6.53;;;29.00;90.20;;;;;;5093533;28;20032;-83
2021/07/19 11:57:55;;;;;;;7.45;6.25;;;28.70;90.30;;;;;;5094043;28;20028;-81
2021/07/19 12:00:38;;;;;;;10.10;6.35;;;28.40;90.70;;;;;;5104352;28;20035;-83
2021/07/19 12:03:06;;;;;;;8.07;6.68;;;28.50;90.90;;;;;;5098285;28;20062;-83
2021/07/19 12:05:33;;;;;;;8.35;6.50;;;28.90;90.20;;;;;;5109688;28;20016;-82
2021/07/19 12:08:09;;;;;;;8.07;6.45;;;29.60;89.70;;;;;;5100149;28;20034;-83
2021/07/19 12:10:40;;;;;;;7.97;6.22;;;30.20;88.30;;;;;;5105701;28;20036;-82
2021/07/19 12:13:13;;;;;;;9.40;6.80;;;30.10;87.10;;;;;;5093946;28;20077;-83
2021/07/19 12:15:51;;;;;;;8.65;6.45;;;29.70;87.00;;;;;;5096200;28;20015;-82
2021/07/19 12:18:29;;;;;;;7.70;6.25;;;29.00;88.10;;;;;;5093362;28;20068;-83
2021/07/19 12:21:04;;;;;;;10.13;7.10;;;28.20;89.00;;;;;;5107255;28;20106;-82
2021/07/19 12:23:47;;;;;;;9.50;6.80;;;27.40;90.00;;;;;;5094939;28;20039;-83
2021/07/19 12:26:36;;;;;;;9.18;7.55;;;26.70;90.30;;;;;;5093647;28;20478;-83
2021/07/19 12:29:12;;;;;;;9.00;6.72;;;26.00;90.80;;;;;;5096703;28;20011;-84
2021/07/19 12:31:46;;;;;;;8.88;6.72;;;25.70;91.70;;;;;;5095968;28;20016;-84
2021/07/19 12:34:31;;;;;;;7.65;6.03;;;25.80;92.10;;;;;;5115048;28;20047;-84
2021/07/19 12:37:01;;;;;;;8.05;5.85;;;26.40;92.10;;;;;;5099887;28;20032;-85
2021/07/19 12:39:33;;;;;;;10.98;6.90;;;27.10;91.70;;;;;;5111366;28;20047;-83
2021/07/19 12:42:16;;;;;;;8.75;7.18;;;27.90;90.70;;;;;;5100097;28;20039;-85
2021/07/19 12:44:56;;;;;;;7.28;6.13;;;28.60;90.30;;;;;;5069416;28;20185;-84
2021/07/19 12:47:23;;;;;;;8.40;6.43;;;29.40;89.20;;;;;;5114991;28;20007;-84
2021/07/19 12:49:59;;;;;;;8.95;6.93;;;30.00;88.10;;;;;;5083372;28;20024;-82
2021/07/19 12:52:34;;;;;;;7.97;6.35;;;30.50;86.70;;;;;;5104536;28;20031;-84
2021/07/19 12:55:20;;;;;;;8.05;6.00;;;30.70;86.10;;;;;;5088459;28;20028;-85
2021/07/19 12:57:55;;;;;;;8.10;6.90;;;31.10;84.60;;;;;;5081185;28;20028;-83
2021/07/19 13:00:28;;;;;;;8.30;6.80;;;31.50;82.70;;;;;;5091420;28;20479;-83
2021/07/19 13:03:06;;;;;;;8.70;6.75;;;31.70;81.60;;;;;;5092672;28;20031;-83
2021/07/19 13:05:32;;;;;;;8.57;6.63;;;32.10;81.10;;;;;;5082988;28;20028;-83
2021/07/19 13:07:58;;;;;;;7.82;6.45;;;32.10;79.00;;;;;;5089359;28;20024;-83
2021/07/19 13:10:28;;;;;;;8.73;6.60;;;31.70;78.80;;;;;;5091799;28;20387;-83
2021/07/19 13:13:00;;;;;;;7.75;6.20;;;31.00;78.40;;;;;;5104160;28;20032;-83
2021/07/19 13:15:38;;;;;;;7.78;5.63;;;30.20;79.90;;;;;;5113418;28;20024;-82
2021/07/19 13:18:21;;;;;;;7.75;6.45;;;29.50;80.70;;;;;;5104342;28;20459;-82